Time;durP1;ratioP1;P1;durP2;ratioP2;P2;SDS_P1;SDS_P2;PMS_P1;PMS_P2;Temp;Humidity;BMP_temperature;BMP_pressure;BME280_temperature;BME280_humidity;BME280_pressure;Samples;Min_cycle;Max_cycle;Signal;HPM_P1;HPM_P2
2022/12/20 00:02:13;;;;;;;7.57;4.47;;;;;;;;;;4997260;28;20539;-78
2022/12/20 00:04:39;;;;;;;9.20;4.35;;;;;;;;;;4997281;28;20113;-78
2022/12/20 00:07:05;;;;;;;9.10;4.65;;;;;;;;;;4997492;28;20026;-78
2022/12/20 00:09:31;;;;;;;6.95;4.68;;;;;;;;;;4981817;28;20023;-78
2022/12/20 00:11:57;;;;;;;7.68;4.53;;;;;;;;;;4977697;28;20031;-78
2022/12/20 00:14:23;;;;;;;8.65;4.68;;;;;;;;;;4977862;28;20077;-77
2022/12/20 00:16:49;;;;;;;4.85;4.07;;;;;;;;;;4977830;28;20038;-78
2022/12/20 00:19:15;;;;;;;9.05;4.55;;;;;;;;;;4985219;28;20033;-77
2022/12/20 00:21:41;;;;;;;9.68;4.13;;;;;;;;;;4977524;28;20114;-78
2022/12/20 00:24:07;;;;;;;6.55;4.68;;;;;;;;;;4977431;28;20114;-78
2022/12/20 00:26:34;;;;;;;7.20;4.32;;;;;;;;;;4977531;28;20354;-77
2022/12/20 00:29:00;;;;;;;5.25;4.07;;;;;;;;;;4977212;28;20114;-78
2022/12/20 00:31:27;;;;;;;5.35;3.70;;;;;;;;;;4977654;28;20022;-78
2022/12/20 00:33:54;;;;;;;5.00;4.03;;;;;;;;;;4986012;28;20077;-78
2022/12/20 00:36:21;;;;;;;6.07;4.38;;;;;;;;;;4996721;28;20022;-77
2022/12/20 00:38:47;;;;;;;6.55;4.35;;;;;;;;;;4996800;28;20026;-78
2022/12/20 00:41:14;;;;;;;7.18;4.18;;;;;;;;;;4996315;28;20084;-77
2022/12/20 00:43:41;;;;;;;6.15;4.43;;;;;;;;;;4996348;28;20358;-78
2022/12/20 00:46:08;;;;;;;6.38;4.60;;;;;;;;;;4996401;28;20018;-77
2022/12/20 00:48:34;;;;;;;7.95;4.75;;;;;;;;;;4996565;28;20019;-78
2022/12/20 00:51:01;;;;;;;5.93;4.10;;;;;;;;;;4996423;28;20039;-78
2022/12/20 00:53:27;;;;;;;4.25;3.58;;;;;;;;;;4996521;28;20028;-78
2022/12/20 00:55:53;;;;;;;6.95;4.28;;;;;;;;;;4996215;28;20381;-78
2022/12/20 00:58:19;;;;;;;7.03;4.43;;;;;;;;;;4996145;28;20050;-78
2022/12/20 01:00:45;;;;;;;5.97;4.05;;;;;;;;;;4996109;28;20081;-77
2022/12/20 01:03:11;;;;;;;8.63;4.50;;;;;;;;;;4996063;28;20030;-77
2022/12/20 01:05:38;;;;;;;5.95;3.88;;;;;;;;;;4996130;28;20030;-78
2022/12/20 01:08:04;;;;;;;5.75;3.80;;;;;;;;;;4994571;28;20049;-78
2022/12/20 01:10:30;;;;;;;6.15;3.92;;;;;;;;;;4976553;28;20031;-78
2022/12/20 01:12:57;;;;;;;8.05;4.55;;;;;;;;;;4977099;28;20031;-78
2022/12/20 01:15:23;;;;;;;6.07;3.88;;;;;;;;;;4976520;28;20034;-78
2022/12/20 01:17:50;;;;;;;6.60;4.32;;;;;;;;;;4976554;28;20023;-77
2022/12/20 01:20:16;;;;;;;5.68;3.90;;;;;;;;;;4976107;28;20182;-77
2022/12/20 01:22:42;;;;;;;7.78;4.18;;;;;;;;;;4989733;28;20132;-77
2022/12/20 01:25:08;;;;;;;6.30;4.10;;;;;;;;;;4995834;28;20486;-78
2022/12/20 01:27:34;;;;;;;6.65;4.35;;;;;;;;;;4995617;28;20108;-77
2022/12/20 01:30:00;;;;;;;5.72;4.03;;;;;;;;;;4995568;28;20058;-78
2022/12/20 01:32:26;;;;;;;7.03;4.38;;;;;;;;;;4995604;28;20041;-77
2022/12/20 01:34:53;;;;;;;7.20;3.40;;;;;;;;;;4995772;28;20080;-77
2022/12/20 01:37:19;;;;;;;7.07;4.25;;;;;;;;;;4995749;28;20470;-78
2022/12/20 01:39:45;;;;;;;7.00;3.85;;;;;;;;;;4991749;28;20077;-77
2022/12/20 01:42:14;;;;;;;5.35;3.95;;;;;;;;;;4975835;28;20381;-77
2022/12/20 01:44:40;;;;;;;6.28;3.92;;;;;;;;;;5015245;28;20041;-78
2022/12/20 01:47:07;;;;;;;6.00;3.80;;;;;;;;;;5015134;28;20029;-78
2022/12/20 01:49:36;;;;;;;7.97;4.57;;;;;;;;;;5015095;28;20057;-77
2022/12/20 01:52:05;;;;;;;6.40;3.75;;;;;;;;;;5014939;28;20040;-77
2022/12/20 01:54:36;;;;;;;6.20;3.95;;;;;;;;;;5014889;28;20488;-78
2022/12/20 01:57:04;;;;;;;6.93;4.07;;;;;;;;;;5014770;28;20030;-78
2022/12/20 01:59:31;;;;;;;7.30;4.05;;;;;;;;;;5014549;28;20168;-77
2022/12/20 02:01:58;;;;;;;6.85;4.05;;;;;;;;;;5014897;28;20034;-77
2022/12/20 02:04:24;;;;;;;5.93;4.30;;;;;;;;;;5014675;28;20493;-77
2022/12/20 02:06:50;;;;;;;6.65;4.07;;;;;;;;;;5014660;28;20388;-77
2022/12/20 02:09:16;;;;;;;7.13;4.68;;;;;;;;;;5014852;28;20065;-77
2022/12/20 02:12:01;;;;;;;6.57;3.78;;;;;;;;;;5014960;28;20428;-78
2022/12/20 02:14:34;;;;;;;7.45;3.65;;;;;;;;;;5014621;28;20465;-78
2022/12/20 02:17:13;;;;;;;6.82;4.70;;;;;;;;;;5014756;28;20029;-78
2022/12/20 02:19:54;;;;;;;5.43;3.60;;;;;;;;;;5014832;28;20116;-77
2022/12/20 02:22:41;;;;;;;7.40;4.00;;;;;;;;;;4980366;28;20042;-78
2022/12/20 02:25:21;;;;;;;5.57;3.83;;;;;;;;;;4995021;28;20101;-77
2022/12/20 02:27:54;;;;;;;6.55;3.63;;;;;;;;;;4994986;28;20057;-78
2022/12/20 02:30:26;;;;;;;8.25;4.10;;;;;;;;;;4994964;28;20448;-78
2022/12/20 02:33:06;;;;;;;8.50;4.32;;;;;;;;;;4994680;28;20030;-78
2022/12/20 02:35:34;;;;;;;8.07;4.32;;;;;;;;;;4994714;28;20029;-78
2022/12/20 02:38:02;;;;;;;6.75;4.30;;;;;;;;;;4978542;28;20031;-78
2022/12/20 02:40:32;;;;;;;6.30;3.83;;;;;;;;;;4975608;28;20059;-78
2022/12/20 02:42:58;;;;;;;;;;;;;;;;;;4975821;28;20520;-77
2022/12/20 02:45:27;;;;;;;6.72;4.32;;;;;;;;;;4975430;28;19910;-78
2022/12/20 02:47:53;;;;;;;9.13;3.92;;;;;;;;;;4975090;28;20405;-78
2022/12/20 02:50:27;;;;;;;7.18;4.03;;;;;;;;;;4975186;28;20026;-78
2022/12/20 02:52:54;;;;;;;6.72;4.05;;;;;;;;;;4974807;28;20047;-78
2022/12/20 02:55:22;;;;;;;7.00;4.13;;;;;;;;;;4975250;28;20022;-78
2022/12/20 02:57:51;;;;;;;5.57;3.63;;;;;;;;;;4974987;28;20077;-77
2022/12/20 03:00:19;;;;;;;8.32;4.15;;;;;;;;;;4974906;28;20561;-77
2022/12/20 03:05:32;;;;;;;6.82;4.13;;;;;;;;;;4975506;28;20113;-78
2022/12/20 03:07:58;;;;;;;8.27;4.20;;;;;;;;;;4975141;28;20023;-78
2022/12/20 03:10:24;;;;;;;4.85;3.30;;;;;;;;;;4975534;28;20031;-78
2022/12/20 03:12:51;;;;;;;6.50;3.75;;;;;;;;;;4975075;28;20035;-78
2022/12/20 03:15:17;;;;;;;5.85;3.55;;;;;;;;;;4975064;28;20378;-78
2022/12/20 03:17:44;;;;;;;4.75;3.75;;;;;;;;;;4974727;28;20458;-78
2022/12/20 03:20:10;;;;;;;8.15;3.75;;;;;;;;;;4974963;28;20042;-77
2022/12/20 03:22:37;;;;;;;7.28;4.00;;;;;;;;;;4975129;28;20030;-78
2022/12/20 03:25:03;;;;;;;6.82;4.03;;;;;;;;;;4974948;28;20027;-78
2022/12/20 03:27:29;;;;;;;5.88;3.20;;;;;;;;;;4980097;28;20412;-78
2022/12/20 03:29:55;;;;;;;4.93;3.22;;;;;;;;;;4994272;28;20102;-78
2022/12/20 03:32:21;;;;;;;6.47;3.92;;;;;;;;;;4994405;28;20362;-78
2022/12/20 03:34:47;;;;;;;5.18;3.53;;;;;;;;;;4994334;28;20105;-78
2022/12/20 03:37:13;;;;;;;6.03;3.35;;;;;;;;;;4994218;28;20033;-78
2022/12/20 03:39:39;;;;;;;6.90;4.05;;;;;;;;;;4994126;28;20031;-78
2022/12/20 03:42:05;;;;;;;5.15;3.72;;;;;;;;;;4993943;28;20381;-78
2022/12/20 03:44:31;;;;;;;5.43;3.88;;;;;;;;;;4996472;28;20026;-78
2022/12/20 03:46:57;;;;;;;7.03;3.92;;;;;;;;;;4997759;28;20480;-78
2022/12/20 03:49:24;;;;;;;8.07;4.47;;;;;;;;;;4997435;28;20030;-77
2022/12/20 03:51:50;;;;;;;9.07;3.30;;;;;;;;;;4997667;28;20029;-78
2022/12/20 03:54:16;;;;;;;6.45;3.50;;;;;;;;;;4997598;28;20088;-77
2022/12/20 03:56:42;;;;;;;6.50;3.35;;;;;;;;;;4997767;28;20054;-78
2022/12/20 03:59:08;;;;;;;4.55;3.30;;;;;;;;;;4997219;28;20057;-78
2022/12/20 04:01:35;;;;;;;5.07;3.55;;;;;;;;;;4997363;28;20030;-78
2022/12/20 04:04:02;;;;;;;7.32;3.95;;;;;;;;;;4997585;28;20034;-78
2022/12/20 04:06:28;;;;;;;4.95;4.13;;;;;;;;;;4997390;28;20441;-78
2022/12/20 04:08:54;;;;;;;8.85;4.80;;;;;;;;;;4997110;28;20022;-78
2022/12/20 04:11:20;;;;;;;7.20;3.67;;;;;;;;;;4997269;28;20256;-78
2022/12/20 04:13:47;;;;;;;7.82;3.53;;;;;;;;;;4997248;28;20435;-78
2022/12/20 04:16:14;;;;;;;6.68;3.60;;;;;;;;;;4997291;28;20026;-78
2022/12/20 04:18:40;;;;;;;6.28;3.50;;;;;;;;;;4996946;28;20034;-78
2022/12/20 04:21:06;;;;;;;7.85;4.22;;;;;;;;;;4996937;28;20030;-78
2022/12/20 04:23:33;;;;;;;9.48;4.93;;;;;;;;;;4997088;28;20030;-78
2022/12/20 04:26:00;;;;;;;8.25;4.55;;;;;;;;;;4996918;28;20041;-78
2022/12/20 04:28:26;;;;;;;10.55;4.85;;;;;;;;;;4996909;28;20074;-78
2022/12/20 04:30:52;;;;;;;5.03;3.67;;;;;;;;;;4996874;28;20454;-78
2022/12/20 04:33:18;;;;;;;5.95;3.88;;;;;;;;;;4996693;28;20034;-78
2022/12/20 04:35:44;;;;;;;6.15;3.70;;;;;;;;;;4996677;28;20057;-78
2022/12/20 04:38:10;;;;;;;5.22;3.45;;;;;;;;;;4977371;28;20058;-78
2022/12/20 04:40:36;;;;;;;4.63;3.13;;;;;;;;;;4977400;28;20031;-78
2022/12/20 04:43:01;;;;;;;9.25;3.80;;;;;;;;;;4977220;28;20078;-78
2022/12/20 04:45:27;;;;;;;6.03;3.63;;;;;;;;;;4977111;28;20058;-78
2022/12/20 04:47:53;;;;;;;5.78;3.35;;;;;;;;;;4977613;28;20394;-78
2022/12/20 04:50:20;;;;;;;4.30;3.45;;;;;;;;;;4989402;28;20030;-78
2022/12/20 04:55:30;;;;;;;5.13;3.40;;;;;;;;;;4995334;28;20092;-78
2022/12/20 04:57:56;;;;;;;4.63;3.25;;;;;;;;;;4996834;28;20139;-78
2022/12/20 05:00:22;;;;;;;6.88;3.58;;;;;;;;;;4995426;28;20051;-78
2022/12/20 05:02:50;;;;;;;6.53;3.28;;;;;;;;;;4996316;28;20026;-78
2022/12/20 05:05:16;;;;;;;4.47;3.20;;;;;;;;;;4996601;28;20022;-78
2022/12/20 05:07:42;;;;;;;6.10;3.42;;;;;;;;;;4996540;28;20026;-77
2022/12/20 05:10:08;;;;;;;5.35;3.17;;;;;;;;;;4996344;28;20105;-78
2022/12/20 05:12:34;;;;;;;4.68;2.85;;;;;;;;;;4996270;28;20049;-78
2022/12/20 05:15:00;;;;;;;4.10;3.08;;;;;;;;;;4995881;28;20648;-77
2022/12/20 05:17:26;;;;;;;9.27;3.58;;;;;;;;;;4996225;28;20037;-78
2022/12/20 05:19:52;;;;;;;5.13;3.13;;;;;;;;;;5002708;28;20026;-77
2022/12/20 05:27:48;;;;;;;5.25;2.80;;;;;;;;;;5015509;28;20080;-77
2022/12/20 05:30:15;;;;;;;4.28;3.20;;;;;;;;;;5015361;28;20105;-78
2022/12/20 05:32:41;;;;;;;5.43;3.45;;;;;;;;;;5015772;28;20033;-78
2022/12/20 05:35:07;;;;;;;5.80;2.97;;;;;;;;;;5015215;28;20453;-77
2022/12/20 05:37:33;;;;;;;3.80;3.30;;;;;;;;;;5015457;28;20026;-78
2022/12/20 05:39:59;;;;;;;4.70;3.05;;;;;;;;;;5014641;28;20088;-77
2022/12/20 05:42:25;;;;;;;5.70;3.55;;;;;;;;;;4981420;28;20042;-77
2022/12/20 05:44:51;;;;;;;5.90;3.28;;;;;;;;;;4975521;28;20109;-77
2022/12/20 05:47:17;;;;;;;4.07;3.13;;;;;;;;;;4975415;28;20035;-77
2022/12/20 05:49:43;;;;;;;5.38;3.35;;;;;;;;;;4975642;28;20034;-77
2022/12/20 05:52:09;;;;;;;4.65;3.22;;;;;;;;;;4975343;28;20031;-77
2022/12/20 05:54:35;;;;;;;8.52;3.55;;;;;;;;;;4975628;28;20374;-77
2022/12/20 05:57:01;;;;;;;6.90;3.45;;;;;;;;;;4975244;28;20042;-77
2022/12/20 05:59:27;;;;;;;4.53;3.00;;;;;;;;;;4974171;28;20062;-78
2022/12/20 06:01:53;;;;;;;5.25;3.28;;;;;;;;;;4975365;28;20031;-77
2022/12/20 06:04:19;;;;;;;6.15;3.50;;;;;;;;;;4975591;28;20076;-78
2022/12/20 06:06:46;;;;;;;6.35;3.20;;;;;;;;;;4975789;28;20081;-77
2022/12/20 06:09:12;;;;;;;6.72;3.47;;;;;;;;;;4975427;28;20468;-77
2022/12/20 06:11:38;;;;;;;5.57;3.80;;;;;;;;;;4975024;28;20034;-77
2022/12/20 06:14:04;;;;;;;7.35;3.95;;;;;;;;;;4975220;28;20026;-77
2022/12/20 06:16:30;;;;;;;4.93;3.28;;;;;;;;;;4974949;28;20582;-77
2022/12/20 06:18:56;;;;;;;6.25;3.90;;;;;;;;;;4974447;28;20051;-77
2022/12/20 06:21:22;;;;;;;5.65;3.50;;;;;;;;;;4974219;28;20086;-77
2022/12/20 06:23:48;;;;;;;5.65;3.92;;;;;;;;;;4974289;28;20027;-77
2022/12/20 06:26:14;;;;;;;6.50;5.10;;;;;;;;;;4979358;28;20421;-77
2022/12/20 06:28:44;;;;;;;7.07;4.45;;;;;;;;;;4985749;28;20030;-77
2022/12/20 06:31:11;;;;;;;6.15;4.45;;;;;;;;;;4974958;28;20074;-77
2022/12/20 06:33:37;;;;;;;5.97;4.35;;;;;;;;;;4975393;28;20106;-77
2022/12/20 06:36:03;;;;;;;6.13;4.00;;;;;;;;;;4975237;28;20027;-77
2022/12/20 06:38:30;;;;;;;7.60;4.65;;;;;;;;;;4975125;28;20378;-78
2022/12/20 06:40:56;;;;;;;6.22;4.70;;;;;;;;;;4975082;28;20031;-78
2022/12/20 06:43:22;;;;;;;9.10;4.85;;;;;;;;;;4974746;28;20070;-77
2022/12/20 06:45:48;;;;;;;8.68;5.10;;;;;;;;;;4974768;28;20398;-77
2022/12/20 06:48:14;;;;;;;7.60;5.15;;;;;;;;;;4975155;28;20114;-77
2022/12/20 06:50:40;;;;;;;7.80;4.88;;;;;;;;;;4975367;28;20110;-78
2022/12/20 06:53:06;;;;;;;8.10;4.68;;;;;;;;;;4975071;28;20073;-77
2022/12/20 06:55:32;;;;;;;5.70;4.45;;;;;;;;;;4975957;28;20066;-77
2022/12/20 06:57:59;;;;;;;6.32;4.30;;;;;;;;;;4974747;28;20026;-77
2022/12/20 07:00:25;;;;;;;8.15;5.00;;;;;;;;;;4973948;28;20433;-77
2022/12/20 07:02:51;;;;;;;6.88;4.50;;;;;;;;;;4975161;28;20561;-77
2022/12/20 07:05:17;;;;;;;8.25;4.95;;;;;;;;;;4975317;28;20027;-78
2022/12/20 07:07:43;;;;;;;7.95;4.70;;;;;;;;;;4974888;28;20099;-78
2022/12/20 07:10:10;;;;;;;6.57;3.80;;;;;;;;;;4975131;28;20019;-77
2022/12/20 07:12:36;;;;;;;5.93;4.43;;;;;;;;;;4973888;28;20023;-77
2022/12/20 07:15:02;;;;;;;8.23;4.63;;;;;;;;;;4974654;28;20397;-78
2022/12/20 07:17:30;;;;;;;6.80;4.40;;;;;;;;;;4974669;28;20370;-78
2022/12/20 07:19:56;;;;;;;6.57;4.50;;;;;;;;;;4978203;28;20058;-77
2022/12/20 07:22:22;;;;;;;7.43;4.72;;;;;;;;;;4978849;28;20062;-77
2022/12/20 07:24:49;;;;;;;6.60;4.32;;;;;;;;;;4977572;28;20074;-77
2022/12/20 07:27:15;;;;;;;5.80;4.32;;;;;;;;;;4977489;28;20027;-77
2022/12/20 07:29:41;;;;;;;7.15;4.45;;;;;;;;;;4976950;28;20043;-77
2022/12/20 07:32:07;;;;;;;5.57;4.25;;;;;;;;;;4977206;28;20635;-77
2022/12/20 07:34:33;;;;;;;6.68;4.00;;;;;;;;;;4976929;28;20027;-77
2022/12/20 07:36:59;;;;;;;6.97;3.90;;;;;;;;;;4976898;28;20086;-77
2022/12/20 07:39:25;;;;;;;6.40;3.85;;;;;;;;;;4977077;28;20027;-77
2022/12/20 07:41:55;;;;;;;6.85;3.33;;;;;;;;;;4978074;28;20122;-77
2022/12/20 07:44:21;;;;;;;6.40;3.78;;;;;;;;;;4977737;28;20469;-77
2022/12/20 07:46:48;;;;;;;7.68;3.80;;;;;;;;;;4977857;28;20027;-77
2022/12/20 07:49:14;;;;;;;6.30;3.97;;;;;;;;;;4977649;28;20031;-78
2022/12/20 07:51:43;;;;;;;4.72;3.65;;;;;;;;;;4977778;28;20085;-77
2022/12/20 07:54:11;;;;;;;6.13;3.75;;;;;;;;;;4977528;28;20077;-77
2022/12/20 07:56:40;;;;;;;6.38;4.00;;;;;;;;;;4977519;28;20031;-77
2022/12/20 07:59:06;;;;;;;5.72;3.92;;;;;;;;;;4976318;28;20054;-78
2022/12/20 08:01:32;;;;;;;6.60;3.72;;;;;;;;;;4977310;28;20038;-78
2022/12/20 08:04:10;;;;;;;6.68;3.83;;;;;;;;;;4989809;28;20084;-77
2022/12/20 08:06:36;;;;;;;5.88;4.25;;;;;;;;;;4996729;28;20030;-77
2022/12/20 08:09:04;;;;;;;6.22;3.35;;;;;;;;;;4994788;28;20019;-77
2022/12/20 08:11:32;;;;;;;6.10;3.70;;;;;;;;;;4996824;28;20093;-77
2022/12/20 08:13:58;;;;;;;4.15;3.20;;;;;;;;;;4979449;28;20041;-78
2022/12/20 08:16:25;;;;;;;5.78;3.20;;;;;;;;;;4996761;28;20026;-78
2022/12/20 08:18:51;;;;;;;5.72;3.25;;;;;;;;;;4987290;28;20106;-77
2022/12/20 08:21:17;;;;;;;5.80;3.42;;;;;;;;;;4977428;28;20031;-77
2022/12/20 08:23:44;;;;;;;5.55;4.00;;;;;;;;;;4977517;28;20034;-77
2022/12/20 08:26:10;;;;;;;5.10;3.20;;;;;;;;;;4977476;28;20030;-78
2022/12/20 08:28:36;;;;;;;6.82;3.50;;;;;;;;;;4977164;28;20374;-78
2022/12/20 08:31:02;;;;;;;3.78;2.80;;;;;;;;;;4977247;28;20077;-77
2022/12/20 08:33:28;;;;;;;9.15;3.22;;;;;;;;;;4977020;28;20022;-77
2022/12/20 08:36:01;;;;;;;5.30;3.30;;;;;;;;;;4987751;28;20062;-78
2022/12/20 08:38:28;;;;;;;5.45;3.00;;;;;;;;;;4988218;28;20030;-78
2022/12/20 08:41:01;;;;;;;5.55;3.00;;;;;;;;;;4982033;28;20528;-78
2022/12/20 08:43:27;;;;;;;6.35;3.00;;;;;;;;;;4976763;28;20027;-77
2022/12/20 08:45:54;;;;;;;5.30;2.97;;;;;;;;;;4995976;28;20432;-77
2022/12/20 08:48:21;;;;;;;5.72;3.00;;;;;;;;;;4996077;28;20080;-77
2022/12/20 08:50:47;;;;;;;5.60;3.10;;;;;;;;;;4996074;28;20046;-77
2022/12/20 08:53:13;;;;;;;7.22;3.70;;;;;;;;;;4985678;28;20031;-77
2022/12/20 08:55:39;;;;;;;4.03;3.33;;;;;;;;;;4976103;28;20027;-77
2022/12/20 08:58:05;;;;;;;4.15;2.70;;;;;;;;;;4976734;28;20147;-77
2022/12/20 09:00:32;;;;;;;10.23;3.10;;;;;;;;;;4975451;28;20063;-77
2022/12/20 09:02:58;;;;;;;5.30;2.75;;;;;;;;;;4976647;28;20027;-78
2022/12/20 09:05:24;;;;;;;5.15;3.10;;;;;;;;;;4976348;28;20034;-77
2022/12/20 09:07:50;;;;;;;5.03;3.00;;;;;;;;;;4976148;28;20031;-77
2022/12/20 09:10:16;;;;;;;5.63;2.88;;;;;;;;;;4986125;28;20026;-77
2022/12/20 09:12:42;;;;;;;4.50;2.70;;;;;;;;;;4995646;28;20037;-77
2022/12/20 09:15:09;;;;;;;4.57;2.95;;;;;;;;;;4995445;28;20027;-78
2022/12/20 09:17:35;;;;;;;4.35;2.72;;;;;;;;;;4995631;28;20034;-78
2022/12/20 09:20:07;;;;;;;4.75;2.83;;;;;;;;;;4995394;28;20037;-77
2022/12/20 09:22:33;;;;;;;8.30;3.03;;;;;;;;;;4995345;28;20043;-78
2022/12/20 09:24:59;;;;;;;4.63;2.83;;;;;;;;;;4995285;28;20034;-77
2022/12/20 09:27:25;;;;;;;4.25;2.67;;;;;;;;;;4995265;28;20027;-77
2022/12/20 09:29:51;;;;;;;5.13;2.75;;;;;;;;;;4995211;28;20027;-77
2022/12/20 09:32:17;;;;;;;5.25;2.70;;;;;;;;;;4995342;28;20401;-78
2022/12/20 09:34:43;;;;;;;4.13;2.50;;;;;;;;;;4995196;28;20026;-78
2022/12/20 09:37:09;;;;;;;3.60;2.58;;;;;;;;;;4995214;28;20029;-78
2022/12/20 09:39:36;;;;;;;6.05;2.90;;;;;;;;;;4995317;28;20401;-77
2022/12/20 09:42:06;;;;;;;7.05;2.72;;;;;;;;;;4994568;28;20049;-78
2022/12/20 09:44:34;;;;;;;4.90;2.67;;;;;;;;;;4994791;28;20042;-78
2022/12/20 09:47:03;;;;;;;5.03;2.53;;;;;;;;;;4995084;28;20035;-77
2022/12/20 09:49:31;;;;;;;4.90;2.80;;;;;;;;;;4994750;28;20053;-77
2022/12/20 09:52:19;;;;;;;4.38;2.65;;;;;;;;;;4995032;28;20030;-78
2022/12/20 09:54:45;;;;;;;6.15;2.80;;;;;;;;;;4994797;28;20030;-78
2022/12/20 09:57:11;;;;;;;4.00;2.65;;;;;;;;;;4994865;28;20024;-78
2022/12/20 09:59:38;;;;;;;3.22;2.20;;;;;;;;;;4993417;28;20050;-78
2022/12/20 10:02:08;;;;;;;5.80;2.60;;;;;;;;;;4994488;28;20496;-77
2022/12/20 10:04:35;;;;;;;6.40;2.92;;;;;;;;;;4994628;28;20381;-77
2022/12/20 10:07:19;;;;;;;3.22;2.58;;;;;;;;;;4994608;28;20057;-78
2022/12/20 10:09:57;;;;;;;4.68;2.50;;;;;;;;;;4994609;28;20029;-77
2022/12/20 10:12:23;;;;;;;3.55;2.25;;;;;;;;;;4994529;28;20073;-78
2022/12/20 10:15:01;;;;;;;4.25;2.35;;;;;;;;;;4994394;28;20019;-78
2022/12/20 10:17:33;;;;;;;5.00;2.90;;;;;;;;;;4994397;28;20033;-77
2022/12/20 10:20:07;;;;;;;3.88;2.60;;;;;;;;;;4994411;28;20030;-77
2022/12/20 10:22:52;;;;;;;3.85;2.63;;;;;;;;;;4994569;28;20034;-77
2022/12/20 10:25:23;;;;;;;5.32;2.45;;;;;;;;;;4994561;28;20042;-77
2022/12/20 10:27:50;;;;;;;4.20;2.67;;;;;;;;;;4994467;28;20026;-78
2022/12/20 10:30:20;;;;;;;7.63;2.60;;;;;;;;;;4994212;28;20037;-78
2022/12/20 10:32:48;;;;;;;3.70;2.58;;;;;;;;;;4994364;28;20497;-78
2022/12/20 10:35:14;;;;;;;5.03;2.75;;;;;;;;;;4994354;28;20030;-78
2022/12/20 10:37:55;;;;;;;4.07;2.60;;;;;;;;;;4994366;28;20077;-78
2022/12/20 10:40:32;;;;;;;5.28;2.88;;;;;;;;;;4994614;28;20041;-78
2022/12/20 10:42:59;;;;;;;3.55;2.20;;;;;;;;;;4996372;28;20493;-78
2022/12/20 10:45:36;;;;;;;5.13;2.78;;;;;;;;;;4975798;28;20347;-78
2022/12/20 10:48:04;;;;;;;5.97;2.83;;;;;;;;;;4978345;28;20035;-78
2022/12/20 10:50:36;;;;;;;4.90;2.88;;;;;;;;;;4983975;28;20027;-78
2022/12/20 10:53:18;;;;;;;3.83;2.75;;;;;;;;;;4977787;28;20504;-78
2022/12/20 10:55:44;;;;;;;3.53;2.47;;;;;;;;;;4980975;28;20117;-78
2022/12/20 10:58:16;;;;;;;5.13;2.80;;;;;;;;;;4981864;28;20055;-79
2022/12/20 11:00:42;;;;;;;4.43;2.47;;;;;;;;;;4996827;28;20054;-78
2022/12/20 11:03:19;;;;;;;4.82;2.65;;;;;;;;;;4998629;28;20109;-78
2022/12/20 11:05:53;;;;;;;4.07;2.60;;;;;;;;;;4998556;28;20038;-78
2022/12/20 11:08:20;;;;;;;6.53;3.25;;;;;;;;;;4999922;28;20124;-78
2022/12/20 11:10:47;;;;;;;5.43;3.25;;;;;;;;;;4999535;28;20393;-78
2022/12/20 11:13:21;;;;;;;8.25;3.35;;;;;;;;;;4998600;28;20487;-78
2022/12/20 11:15:48;;;;;;;7.28;3.10;;;;;;;;;;4998351;28;20030;-78
2022/12/20 11:18:22;;;;;;;5.97;3.17;;;;;;;;;;4998704;28;20033;-78
2022/12/20 11:20:51;;;;;;;3.95;3.10;;;;;;;;;;4984811;28;20033;-78
2022/12/20 11:23:17;;;;;;;5.03;2.95;;;;;;;;;;4979791;28;20031;-78
2022/12/20 11:25:55;;;;;;;4.68;3.10;;;;;;;;;;4981291;28;20031;-78
2022/12/20 11:28:24;;;;;;;4.55;3.03;;;;;;;;;;4979165;28;20027;-78
2022/12/20 11:30:59;;;;;;;6.63;3.70;;;;;;;;;;4986547;28;20026;-78
2022/12/20 11:33:34;;;;;;;5.25;3.25;;;;;;;;;;4997976;28;20026;-78
2022/12/20 11:36:00;;;;;;;6.57;3.35;;;;;;;;;;4998767;28;20023;-79
2022/12/20 11:38:29;;;;;;;4.75;3.25;;;;;;;;;;4993307;28;20413;-78
2022/12/20 11:41:16;;;;;;;9.00;3.90;;;;;;;;;;4994331;28;20925;-78
2022/12/20 11:44:01;;;;;;;5.80;3.97;;;;;;;;;;4991246;28;20520;-78
2022/12/20 11:46:45;;;;;;;6.30;3.72;;;;;;;;;;4982531;28;20027;-78
2022/12/20 11:49:22;;;;;;;6.70;4.93;;;;;;;;;;4997705;28;20449;-78
2022/12/20 11:51:49;;;;;;;6.10;4.38;;;;;;;;;;4999977;28;20101;-78
2022/12/20 11:54:15;;;;;;;4.95;3.90;;;;;;;;;;4998426;28;20026;-78
2022/12/20 11:56:43;;;;;;;7.13;4.07;;;;;;;;;;4998065;28;20023;-78
2022/12/20 11:59:18;;;;;;;6.68;4.28;;;;;;;;;;5000457;28;20385;-78
2022/12/20 12:01:47;;;;;;;5.78;4.15;;;;;;;;;;4993570;28;20033;-78
2022/12/20 12:04:19;;;;;;;8.98;4.65;;;;;;;;;;4993610;28;20041;-78
2022/12/20 12:06:48;;;;;;;6.70;4.15;;;;;;;;;;4979188;28;20031;-78
2022/12/20 12:09:17;;;;;;;7.43;4.32;;;;;;;;;;4978542;28;20522;-78
2022/12/20 12:12:02;;;;;;;4.88;4.25;;;;;;;;;;4978213;28;20031;-78
2022/12/20 12:14:35;;;;;;;5.85;4.45;;;;;;;;;;4979484;28;20031;-78
2022/12/20 12:17:06;;;;;;;5.80;4.20;;;;;;;;;;4998967;28;20069;-78
2022/12/20 12:19:34;;;;;;;5.97;4.80;;;;;;;;;;4989800;28;20062;-78
2022/12/20 12:22:06;;;;;;;7.70;4.50;;;;;;;;;;4979725;28;20485;-78
2022/12/20 12:24:34;;;;;;;6.40;5.07;;;;;;;;;;4977950;28;20039;-78
2022/12/20 12:27:00;;;;;;;6.85;4.90;;;;;;;;;;4977712;28;20031;-78
2022/12/20 12:29:28;;;;;;;7.47;4.88;;;;;;;;;;4961611;28;20022;-78
2022/12/20 12:31:54;;;;;;;6.63;5.13;;;;;;;;;;4979184;28;20042;-78
2022/12/20 12:34:20;;;;;;;6.00;5.38;;;;;;;;;;4978923;28;20027;-78
2022/12/20 12:36:58;;;;;;;5.80;4.93;;;;;;;;;;4979388;28;20057;-78
2022/12/20 12:39:27;;;;;;;8.77;6.15;;;;;;;;;;4980265;28;20033;-78
2022/12/20 12:41:56;;;;;;;7.43;5.32;;;;;;;;;;4979103;28;20027;-78
2022/12/20 12:44:22;;;;;;;9.48;6.15;;;;;;;;;;4999605;28;20030;-78
2022/12/20 12:46:54;;;;;;;8.40;6.30;;;;;;;;;;4980208;28;20113;-78
2022/12/20 12:49:22;;;;;;;6.75;4.88;;;;;;;;;;4998656;28;20044;-78
2022/12/20 12:51:57;;;;;;;6.72;5.30;;;;;;;;;;4993133;28;20034;-78
2022/12/20 12:54:24;;;;;;;7.35;4.95;;;;;;;;;;4980683;28;20101;-78
2022/12/20 12:56:51;;;;;;;8.43;5.07;;;;;;;;;;4996217;28;20037;-78
2022/12/20 12:59:32;;;;;;;6.82;5.03;;;;;;;;;;4976549;28;20090;-78
2022/12/20 13:02:13;;;;;;;7.97;5.78;;;;;;;;;;4988092;28;20030;-78
2022/12/20 13:04:53;;;;;;;8.20;5.18;;;;;;;;;;4997855;28;20481;-78
2022/12/20 13:07:32;;;;;;;6.15;5.55;;;;;;;;;;4997160;28;20026;-78
2022/12/20 13:09:58;;;;;;;7.30;6.00;;;;;;;;;;4996063;28;20101;-78
2022/12/20 13:12:47;;;;;;;7.22;5.07;;;;;;;;;;4992842;28;20026;-78
2022/12/20 13:15:19;;;;;;;6.93;5.93;;;;;;;;;;4994731;28;20029;-78
2022/12/20 13:17:45;;;;;;;7.75;5.80;;;;;;;;;;4986806;28;20081;-78
2022/12/20 13:20:19;;;;;;;7.22;5.85;;;;;;;;;;4995711;28;20029;-78
2022/12/20 13:23:03;;;;;;;7.07;5.85;;;;;;;;;;4996423;28;20069;-77
2022/12/20 13:25:30;;;;;;;6.72;5.90;;;;;;;;;;4997385;28;20031;-78
2022/12/20 13:28:16;;;;;;;7.32;6.15;;;;;;;;;;4991742;28;20541;-79
2022/12/20 13:30:43;;;;;;;7.95;5.97;;;;;;;;;;4978300;28;20031;-78
2022/12/20 13:33:20;;;;;;;10.38;6.90;;;;;;;;;;4978318;28;20037;-78
2022/12/20 13:35:54;;;;;;;7.88;6.82;;;;;;;;;;4977504;28;20487;-78
2022/12/20 13:38:44;;;;;;;9.30;7.63;;;;;;;;;;4822063;27;8277724;-79
2022/12/20 13:41:12;;;;;;;9.43;6.40;;;;;;;;;;5090089;28;20028;-76
2022/12/20 13:43:43;;;;;;;8.95;6.35;;;;;;;;;;5090181;28;20081;-76
2022/12/20 13:46:09;;;;;;;8.93;7.03;;;;;;;;;;5089623;28;20040;-77
2022/12/20 13:48:42;;;;;;;9.65;7.38;;;;;;;;;;5090090;28;20029;-76
2022/12/20 13:51:08;;;;;;;10.00;7.07;;;;;;;;;;5089619;28;20458;-76
2022/12/20 13:53:35;;;;;;;9.20;6.95;;;;;;;;;;5089950;28;20120;-76
2022/12/20 13:56:34;;;;;;;9.40;6.97;;;;;;;;;;5089990;28;20458;-76
2022/12/20 13:59:08;;;;;;;9.95;7.53;;;;;;;;;;5060711;28;20064;-76
2022/12/20 14:01:34;;;;;;;10.30;7.53;;;;;;;;;;5089733;28;20032;-76
2022/12/20 14:04:05;;;;;;;8.68;7.72;;;;;;;;;;5089967;28;20023;-76
2022/12/20 14:06:32;;;;;;;13.32;7.68;;;;;;;;;;5088521;28;20490;-76
2022/12/20 14:08:58;;;;;;;8.90;7.88;;;;;;;;;;5089674;28;20028;-77
2022/12/20 14:11:28;;;;;;;10.85;7.80;;;;;;;;;;5089621;28;20036;-77
2022/12/20 14:13:54;;;;;;;10.82;8.02;;;;;;;;;;5089681;28;20062;-77
2022/12/20 14:16:20;;;;;;;10.23;7.63;;;;;;;;;;5089419;28;20067;-77
2022/12/20 14:18:49;;;;;;;10.60;7.82;;;;;;;;;;5089656;28;20043;-77
2022/12/20 14:21:16;;;;;;;11.13;8.20;;;;;;;;;;5089484;28;20392;-77
2022/12/20 14:23:42;;;;;;;14.20;8.13;;;;;;;;;;5075657;28;20262;-78
2022/12/20 14:26:14;;;;;;;11.35;8.13;;;;;;;;;;5069162;28;20514;-77
2022/12/20 14:28:44;;;;;;;9.82;8.07;;;;;;;;;;5067911;28;20036;-77
2022/12/20 14:31:26;;;;;;;9.20;7.43;;;;;;;;;;5068787;28;20021;-77
2022/12/20 14:34:00;;;;;;;11.23;8.25;;;;;;;;;;5068335;28;20033;-77
2022/12/20 14:36:26;;;;;;;11.27;8.93;;;;;;;;;;5066249;28;20049;-77
2022/12/20 14:38:52;;;;;;;11.95;9.32;;;;;;;;;;5083945;28;20042;-77
2022/12/20 14:41:29;;;;;;;12.23;8.95;;;;;;;;;;5088805;28;20056;-77
2022/12/20 14:43:56;;;;;;;13.30;9.15;;;;;;;;;;5088870;28;20111;-77
2022/12/20 14:46:22;;;;;;;13.30;9.40;;;;;;;;;;5068813;28;20497;-77
2022/12/20 14:48:49;;;;;;;12.35;9.77;;;;;;;;;;5079548;28;20082;-77
2022/12/20 14:51:21;;;;;;;10.57;9.20;;;;;;;;;;5066335;28;20020;-77
2022/12/20 14:53:49;;;;;;;10.40;9.07;;;;;;;;;;5056187;28;20058;-77
2022/12/20 14:56:18;;;;;;;13.13;8.95;;;;;;;;;;5065349;28;20028;-77
2022/12/20 14:58:44;;;;;;;12.15;9.07;;;;;;;;;;5069860;28;20446;-77
2022/12/20 15:01:20;;;;;;;11.20;9.63;;;;;;;;;;5069743;28;20066;-77
2022/12/20 15:03:53;;;;;;;10.27;8.73;;;;;;;;;;5068268;28;20036;-77